createdAt,value
2022-11-03T00:02:36.776Z,2.00
2022-11-03T00:05:56.718Z,1.50
2022-11-03T00:08:59.147Z,1.52
2022-11-03T00:12:01.690Z,1.45
2022-11-03T00:15:03.017Z,1.48
2022-11-03T00:18:04.245Z,1.23
2022-11-03T00:21:07.073Z,1.70
2022-11-03T00:24:08.488Z,1.95
2022-11-03T00:27:09.763Z,1.65
2022-11-03T00:30:11.230Z,1.83
2022-11-03T00:33:12.489Z,1.80
2022-11-03T00:36:15.723Z,2.85
2022-11-03T00:39:17.043Z,1.80
2022-11-03T00:42:18.313Z,2.05
2022-11-03T00:45:19.522Z,1.73
2022-11-03T00:48:29.496Z,2.25
2022-11-03T00:51:30.811Z,2.40
2022-11-03T00:54:32.070Z,1.77
2022-11-03T00:57:33.290Z,1.48
2022-11-03T01:00:34.564Z,1.90
2022-11-03T01:03:37.427Z,1.60
2022-11-03T01:06:52.072Z,1.60
2022-11-03T01:09:53.358Z,1.45
2022-11-03T01:12:54.561Z,1.80
2022-11-03T01:15:59.013Z,2.03
2022-11-03T01:19:00.263Z,1.50
2022-11-03T01:22:04.194Z,1.63
2022-11-03T01:25:09.199Z,1.58
2022-11-03T01:28:10.423Z,1.88
2022-11-03T01:31:13.136Z,1.83
2022-11-03T01:34:18.212Z,1.77
2022-11-03T01:37:19.474Z,2.17
2022-11-03T01:40:20.744Z,1.42
2022-11-03T01:43:23.142Z,1.52
2022-11-03T01:46:25.896Z,1.63
2022-11-03T01:49:36.792Z,1.23
2022-11-03T01:52:42.807Z,1.75
2022-11-03T01:55:44.958Z,1.67
2022-11-03T01:58:47.399Z,1.88
2022-11-03T02:01:48.960Z,1.75
2022-11-03T02:04:50.560Z,2.20
2022-11-03T02:07:57.981Z,1.50
2022-11-03T02:10:59.247Z,1.67
2022-11-03T02:14:00.601Z,1.60
2022-11-03T02:17:04.018Z,2.25
2022-11-03T02:20:13.182Z,2.50
2022-11-03T02:23:14.412Z,1.63
2022-11-03T02:26:16.495Z,1.40
2022-11-03T02:29:17.741Z,1.80
2022-11-03T02:32:23.027Z,1.50
2022-11-03T02:35:37.140Z,2.17
2022-11-03T02:38:42.319Z,1.67
2022-11-03T02:41:43.679Z,1.85
2022-11-03T02:44:45.680Z,1.40
2022-11-03T02:47:47.831Z,1.45
2022-11-03T02:50:49.212Z,1.75
2022-11-03T02:54:02.240Z,2.05
2022-11-03T02:57:11.908Z,1.45
2022-11-03T03:00:13.299Z,1.73
2022-11-03T03:03:17.479Z,1.80
2022-11-03T03:06:38.961Z,1.38
2022-11-03T03:09:46.111Z,1.20
2022-11-03T03:12:49.064Z,1.50
2022-11-03T03:16:06.003Z,1.25
2022-11-03T03:19:23.302Z,1.65
2022-11-03T03:22:35.595Z,1.65
2022-11-03T03:25:40.839Z,1.40
2022-11-03T03:28:50.239Z,1.45
2022-11-03T03:31:55.602Z,2.00
2022-11-03T03:34:58.440Z,1.50
2022-11-03T03:38:03.588Z,1.20
2022-11-03T03:41:10.383Z,1.52
2022-11-03T03:44:12.410Z,1.80
2022-11-03T03:47:17.602Z,2.00
2022-11-03T03:50:19.405Z,1.67
2022-11-03T03:53:20.654Z,1.60
2022-11-03T03:56:26.761Z,1.75
2022-11-03T03:59:28.124Z,1.48
2022-11-03T04:02:29.419Z,1.50
2022-11-03T04:05:30.719Z,1.48
2022-11-03T04:08:31.982Z,1.40
2022-11-03T04:11:51.772Z,1.83
2022-11-03T04:15:11.565Z,1.50
2022-11-03T04:18:31.372Z,1.70
2022-11-03T04:21:51.444Z,1.77
2022-11-03T04:24:52.695Z,1.48
2022-11-03T04:27:53.939Z,1.63
2022-11-03T04:30:59.078Z,1.80
2022-11-03T04:34:00.651Z,1.98
2022-11-03T04:37:01.870Z,1.42
2022-11-03T04:40:06.667Z,2.28
2022-11-03T04:46:10.651Z,1.70
2022-11-03T04:49:14.542Z,1.63
2022-11-03T04:52:22.109Z,1.30
2022-11-03T04:55:23.546Z,1.95
2022-11-03T04:58:24.866Z,1.90
2022-11-03T05:01:27.349Z,1.52
2022-11-03T05:04:28.760Z,1.70
2022-11-03T05:07:34.365Z,1.30
2022-11-03T05:10:35.638Z,1.55
2022-11-03T05:13:36.869Z,1.60
2022-11-03T05:16:38.144Z,1.42
2022-11-03T05:19:41.238Z,1.30
2022-11-03T05:22:42.468Z,2.75
2022-11-03T05:25:45.394Z,3.40
2022-11-03T05:28:48.567Z,1.75
2022-11-03T05:31:51.335Z,2.13
2022-11-03T05:34:54.044Z,2.17
2022-11-03T05:37:55.289Z,1.92
2022-11-03T05:40:56.988Z,2.03
2022-11-03T05:43:59.629Z,2.28
2022-11-03T05:47:04.505Z,2.47
2022-11-03T05:50:14.953Z,1.67
2022-11-03T05:53:16.496Z,2.63
2022-11-03T05:56:19.329Z,1.70
2022-11-03T05:59:23.041Z,2.60
2022-11-03T06:02:33.335Z,2.22
2022-11-03T06:05:34.732Z,1.90
2022-11-03T06:08:38.862Z,2.25
2022-11-03T06:11:43.873Z,1.80
2022-11-03T06:14:45.553Z,2.08
2022-11-03T06:17:46.804Z,1.48
2022-11-03T06:20:52.378Z,2.33
2022-11-03T06:23:54.740Z,1.80
2022-11-03T06:26:56.217Z,1.98
2022-11-03T06:29:58.983Z,1.77
2022-11-03T06:33:26.811Z,1.52
2022-11-03T06:36:31.016Z,1.50
2022-11-03T06:39:33.620Z,2.75
2022-11-03T06:42:34.873Z,1.95
2022-11-03T06:45:36.177Z,2.95
2022-11-03T06:48:38.806Z,2.15
2022-11-03T06:51:40.453Z,2.63
2022-11-03T06:54:41.701Z,3.88
2022-11-03T06:57:44.444Z,3.22
2022-11-03T07:00:50.847Z,3.45
2022-11-03T07:03:57.174Z,2.50
2022-11-03T07:07:00.841Z,2.63
2022-11-03T07:10:02.092Z,4.03
2022-11-03T07:13:10.675Z,4.88
2022-11-03T07:16:29.728Z,4.38
2022-11-03T07:19:34.429Z,3.30
2022-11-03T07:25:37.053Z,2.17
2022-11-03T07:28:38.959Z,2.30
2022-11-03T07:31:40.196Z,3.10
2022-11-03T07:34:41.508Z,4.60
2022-11-03T07:37:43.344Z,4.90
2022-11-03T07:40:44.591Z,3.70
2022-11-03T07:43:58.786Z,2.67
2022-11-03T07:47:00.051Z,2.42
2022-11-03T07:50:01.880Z,3.53
2022-11-03T07:53:08.878Z,3.08
2022-11-03T07:56:15.438Z,3.00
2022-11-03T07:59:19.158Z,3.05
2022-11-03T08:02:23.371Z,2.67
2022-11-03T08:05:24.727Z,3.08
2022-11-03T08:08:25.961Z,3.13
2022-11-03T08:11:29.397Z,2.70
2022-11-03T08:14:31.480Z,3.25
2022-11-03T08:17:32.763Z,3.38
2022-11-03T08:20:34.008Z,3.33
2022-11-03T08:23:35.501Z,3.08
2022-11-03T08:26:36.765Z,3.47
2022-11-03T08:29:38.012Z,3.08
2022-11-03T08:32:39.270Z,2.95
2022-11-03T08:35:40.661Z,3.75
2022-11-03T08:38:42.114Z,2.80
2022-11-03T08:41:43.352Z,3.20
2022-11-03T08:44:44.626Z,3.33
2022-11-03T08:47:46.432Z,3.22
2022-11-03T08:50:48.591Z,2.83
2022-11-03T08:53:55.884Z,2.83
2022-11-03T08:56:57.168Z,2.53
2022-11-03T08:59:58.882Z,2.83
2022-11-03T09:03:00.568Z,2.58
2022-11-03T09:06:01.820Z,2.63
2022-11-03T09:12:24.375Z,2.40
2022-11-03T09:15:25.774Z,2.17
2022-11-03T09:18:27.010Z,2.35
2022-11-03T09:21:28.328Z,2.03
2022-11-03T09:24:30.448Z,1.75
2022-11-03T09:27:31.845Z,3.15
2022-11-03T09:30:33.071Z,2.00
2022-11-03T09:33:34.321Z,2.47
2022-11-03T09:36:35.594Z,2.17
2022-11-03T09:39:36.861Z,2.70
2022-11-03T09:42:38.842Z,3.38
2022-11-03T09:45:40.085Z,2.03
2022-11-03T09:48:41.533Z,3.15
2022-11-03T09:51:42.962Z,2.55
2022-11-03T09:54:44.237Z,1.95
2022-11-03T09:57:46.549Z,3.53
2022-11-03T10:00:47.936Z,2.78
2022-11-03T10:03:49.223Z,2.70
2022-11-03T10:06:50.932Z,2.60
2022-11-03T10:09:53.625Z,2.28
2022-11-03T10:12:55.273Z,2.28
2022-11-03T10:15:57.321Z,2.70
2022-11-03T10:19:00.448Z,2.63
2022-11-03T10:22:01.731Z,2.42
2022-11-03T10:25:21.603Z,2.33
2022-11-03T10:28:23.996Z,2.22
2022-11-03T10:31:31.453Z,2.45
2022-11-03T10:34:34.551Z,2.65
2022-11-03T10:37:38.887Z,2.75
2022-11-03T10:40:47.661Z,2.85
2022-11-03T10:44:03.181Z,2.47
2022-11-03T10:47:05.184Z,3.55
2022-11-03T10:50:25.892Z,2.60
2022-11-03T10:56:33.380Z,2.55
2022-11-03T10:59:37.375Z,2.72
2022-11-03T11:02:42.113Z,3.25
2022-11-03T11:05:46.879Z,3.17
2022-11-03T11:08:49.421Z,3.90
2022-11-03T11:12:06.212Z,3.35
2022-11-03T11:15:26.277Z,4.00
2022-11-03T11:18:27.622Z,2.80
2022-11-03T11:21:30.778Z,3.08
2022-11-03T11:24:45.340Z,2.88
2022-11-03T11:27:47.851Z,2.75
2022-11-03T11:30:58.563Z,2.03
2022-11-03T11:37:00.917Z,3.60
2022-11-03T11:40:03.364Z,2.00
2022-11-03T11:43:11.543Z,1.67
2022-11-03T11:46:22.197Z,2.13
2022-11-03T11:49:23.689Z,2.50
2022-11-03T11:52:24.946Z,1.63
2022-11-03T11:55:38.221Z,2.25
2022-11-03T11:58:56.352Z,2.40
2022-11-03T12:01:57.972Z,1.63
2022-11-03T12:05:01.174Z,1.88
2022-11-03T12:08:02.430Z,2.10
2022-11-03T12:11:04.835Z,1.63
2022-11-03T12:14:20.739Z,1.40
2022-11-03T12:17:21.972Z,2.33
2022-11-03T12:20:36.554Z,1.73
2022-11-03T12:23:41.101Z,1.77
2022-11-03T12:26:42.405Z,2.17
2022-11-03T12:29:43.645Z,2.42
2022-11-03T12:32:45.510Z,2.40
2022-11-03T12:35:46.770Z,1.92
2022-11-03T12:38:47.982Z,2.15
2022-11-03T12:41:49.229Z,2.45
2022-11-03T12:44:50.746Z,3.33
2022-11-03T12:47:52.086Z,2.80
2022-11-03T12:50:53.409Z,2.72
2022-11-03T12:53:54.725Z,1.80
2022-11-03T12:56:55.975Z,1.92
2022-11-03T12:59:57.200Z,2.50
2022-11-03T13:02:58.476Z,2.00
2022-11-03T13:05:59.924Z,1.80
2022-11-03T13:09:01.191Z,1.90
2022-11-03T13:12:21.208Z,2.33
2022-11-03T13:15:22.473Z,1.90
2022-11-03T13:18:23.793Z,1.98
2022-11-03T13:21:25.036Z,2.35
2022-11-03T13:24:26.317Z,1.88
2022-11-03T13:27:27.560Z,1.95
2022-11-03T13:30:29.036Z,1.83
2022-11-03T13:33:30.350Z,1.77
2022-11-03T13:36:31.706Z,2.90
2022-11-03T13:39:33.030Z,2.38
2022-11-03T13:42:34.255Z,2.80
2022-11-03T13:45:35.594Z,2.50
2022-11-03T13:49:33.165Z,2.50
2022-11-03T13:51:58.132Z,3.08
2022-11-03T14:01:43.885Z,2.97
2022-11-03T14:04:45.446Z,2.50
2022-11-03T14:07:46.804Z,2.47
2022-11-03T14:10:48.085Z,3.15
2022-11-03T14:13:49.705Z,2.38
2022-11-03T14:16:51.038Z,2.45
2022-11-03T14:19:56.528Z,2.72
2022-11-03T14:23:00.515Z,2.88
2022-11-03T14:26:14.205Z,2.92
2022-11-03T14:29:23.029Z,2.72
2022-11-03T14:32:24.407Z,2.58
2022-11-03T14:35:25.885Z,2.20
2022-11-03T14:38:27.153Z,2.97
2022-11-03T14:41:46.848Z,2.55
2022-11-03T14:44:48.403Z,2.45
2022-11-03T14:47:49.703Z,3.20
2022-11-03T14:50:51.024Z,2.47
2022-11-03T14:53:52.354Z,2.65
2022-11-03T14:56:53.936Z,2.92
2022-11-03T14:59:55.191Z,3.42
2022-11-03T15:02:56.536Z,3.50
2022-11-03T15:05:57.811Z,3.33
2022-11-03T15:08:59.235Z,2.97
2022-11-03T15:12:00.598Z,2.15
2022-11-03T15:15:01.867Z,2.30
2022-11-03T15:18:03.450Z,3.15
2022-11-03T15:21:04.932Z,2.45
2022-11-03T15:27:27.631Z,2.33
2022-11-03T15:30:28.870Z,2.13
2022-11-03T15:33:30.442Z,2.33
2022-11-03T15:36:33.081Z,2.58
2022-11-03T15:39:34.334Z,2.30
2022-11-03T15:42:36.233Z,1.90
2022-11-03T15:45:37.816Z,2.63
2022-11-03T15:48:39.230Z,3.10
2022-11-03T15:51:40.461Z,2.55
2022-11-03T15:54:42.704Z,1.83
2022-11-03T15:57:44.082Z,3.75
2022-11-03T16:00:45.332Z,4.47
2022-11-03T16:03:46.674Z,4.57
2022-11-03T16:10:09.272Z,3.03
2022-11-03T16:13:10.552Z,4.13
2022-11-03T16:16:11.893Z,2.95
2022-11-03T16:19:13.126Z,2.42
2022-11-03T16:22:15.379Z,2.70
2022-11-03T16:25:19.141Z,2.33
2022-11-03T16:28:21.969Z,3.42
2022-11-03T16:31:23.296Z,3.80
2022-11-03T16:34:24.639Z,3.40
2022-11-03T16:37:28.528Z,5.03
2022-11-03T16:40:29.769Z,3.15
2022-11-03T16:43:31.568Z,5.45
2022-11-03T16:46:32.871Z,4.55
2022-11-03T16:49:34.197Z,3.67
2022-11-03T16:52:35.443Z,4.53
2022-11-03T16:55:36.723Z,3.75
2022-11-03T16:58:37.993Z,4.25
2022-11-03T17:01:39.341Z,3.90
2022-11-03T17:04:40.737Z,3.97
2022-11-03T17:07:41.987Z,4.05
2022-11-03T17:10:43.230Z,4.03
2022-11-03T17:13:44.487Z,4.85
2022-11-03T17:16:46.662Z,5.32
2022-11-03T17:19:47.917Z,3.55
2022-11-03T17:22:49.201Z,3.58
2022-11-03T17:25:50.747Z,3.70
2022-11-03T17:28:53.020Z,3.38
2022-11-03T17:31:54.298Z,4.28
2022-11-03T17:34:56.325Z,4.00
2022-11-03T17:37:57.560Z,3.75
2022-11-03T17:40:58.872Z,3.38
2022-11-03T17:44:00.143Z,5.03
2022-11-03T17:47:01.471Z,3.40
2022-11-03T17:50:02.842Z,2.90
2022-11-03T17:53:04.126Z,3.70
2022-11-03T17:59:27.254Z,3.33
2022-11-03T18:02:30.557Z,3.35
2022-11-03T18:05:32.088Z,3.00
2022-11-03T18:08:33.471Z,3.13
2022-11-03T18:11:55.050Z,2.97
2022-11-03T18:14:56.292Z,2.88
2022-11-03T18:17:57.599Z,2.90
2022-11-03T18:20:58.997Z,2.72
2022-11-03T18:24:00.245Z,2.75
2022-11-03T18:27:01.698Z,3.22
2022-11-03T18:30:03.255Z,2.55
2022-11-03T18:33:04.902Z,2.80
2022-11-03T18:36:06.950Z,3.08
2022-11-03T18:39:10.852Z,3.83
2022-11-03T18:42:12.977Z,3.38
2022-11-03T18:45:15.723Z,3.55
2022-11-03T18:48:19.921Z,6.55
2022-11-03T18:51:21.276Z,3.97
2022-11-03T18:54:23.865Z,3.97
2022-11-03T18:57:26.413Z,4.20
2022-11-03T19:00:27.731Z,3.95
2022-11-03T19:03:29.063Z,3.67
2022-11-03T19:06:30.380Z,3.88
2022-11-03T19:09:32.780Z,3.08
2022-11-03T19:12:38.751Z,3.97
2022-11-03T19:15:40.896Z,4.18
2022-11-03T19:18:42.881Z,4.47
2022-11-03T19:21:44.225Z,3.20
2022-11-03T19:24:45.834Z,3.55
2022-11-03T19:27:47.941Z,3.00
2022-11-03T19:30:51.852Z,3.90
2022-11-03T19:33:57.736Z,3.10
2022-11-03T19:36:59.030Z,3.75
2022-11-03T19:40:00.385Z,3.42
2022-11-03T19:43:01.649Z,2.90
2022-11-03T19:46:04.159Z,3.63
2022-11-03T19:49:05.983Z,2.65
2022-11-03T19:52:08.101Z,2.58
2022-11-03T19:55:13.632Z,2.55
2022-11-03T19:58:16.130Z,3.05
2022-11-03T20:01:17.564Z,2.90
2022-11-03T20:04:18.905Z,2.63
2022-11-03T20:07:20.217Z,3.15
2022-11-03T20:10:21.492Z,3.33
2022-11-03T20:13:24.447Z,3.17
2022-11-03T20:16:25.827Z,4.07
2022-11-03T20:19:27.116Z,3.50
2022-11-03T20:22:29.861Z,2.92
2022-11-03T20:25:33.681Z,2.95
2022-11-03T20:28:35.790Z,3.33
2022-11-03T20:31:37.055Z,3.00
2022-11-03T20:34:39.366Z,3.22
2022-11-03T20:37:41.157Z,2.88
2022-11-03T20:40:42.489Z,2.85
2022-11-03T20:43:44.864Z,2.40
2022-11-03T20:46:46.139Z,2.50
2022-11-03T20:49:48.387Z,2.53
2022-11-03T20:52:49.946Z,2.45
2022-11-03T20:55:51.950Z,1.90
2022-11-03T20:58:53.834Z,2.63
2022-11-03T21:01:55.184Z,2.70
2022-11-03T21:04:56.560Z,2.10
2022-11-03T21:07:57.820Z,2.33
2022-11-03T21:11:19.078Z,2.55
2022-11-03T21:14:23.030Z,2.22
2022-11-03T21:17:43.003Z,2.22
2022-11-03T21:20:45.121Z,3.25
2022-11-03T21:23:46.389Z,2.40
2022-11-03T21:26:47.733Z,2.30
2022-11-03T21:29:58.885Z,2.75
2022-11-03T21:33:01.157Z,2.22
2022-11-03T21:36:02.444Z,2.53
2022-11-03T21:39:04.208Z,2.25
2022-11-03T21:42:24.049Z,2.22
2022-11-03T21:45:25.525Z,2.30
2022-11-03T21:48:45.188Z,3.03
2022-11-03T21:51:46.447Z,2.60
2022-11-03T21:54:47.703Z,3.70
2022-11-03T21:57:48.957Z,3.42
2022-11-03T22:00:50.253Z,2.50
2022-11-03T22:03:51.532Z,3.30
2022-11-03T22:06:58.952Z,2.53
2022-11-03T22:10:00.216Z,2.72
2022-11-03T22:13:01.448Z,2.28
2022-11-03T22:16:21.117Z,2.70
2022-11-03T22:19:40.716Z,3.30
2022-11-03T22:23:00.714Z,2.83
2022-11-03T22:26:20.861Z,2.55
2022-11-03T22:29:40.688Z,3.13
2022-11-03T22:32:42.435Z,2.53
2022-11-03T22:36:02.238Z,2.63
2022-11-03T22:39:22.023Z,3.28
2022-11-03T22:42:45.028Z,2.80
2022-11-03T22:45:52.151Z,2.85
2022-11-03T22:48:53.654Z,3.72
2022-11-03T22:51:54.911Z,2.38
2022-11-03T22:54:56.181Z,3.08
2022-11-03T22:57:58.305Z,3.40
2022-11-03T23:01:02.456Z,3.45
2022-11-03T23:04:05.540Z,2.95
2022-11-03T23:07:06.768Z,2.63
2022-11-03T23:10:08.297Z,3.17
2022-11-03T23:13:10.087Z,3.10
2022-11-03T23:16:12.756Z,3.10
2022-11-03T23:19:33.506Z,3.15
2022-11-03T23:22:34.742Z,2.97
2022-11-03T23:25:35.975Z,2.80
2022-11-03T23:28:37.250Z,2.95
2022-11-03T23:31:39.308Z,3.17
2022-11-03T23:34:40.557Z,2.80
2022-11-03T23:37:41.786Z,3.22
2022-11-03T23:40:43.010Z,3.10
2022-11-03T23:43:44.619Z,2.80
2022-11-03T23:47:04.487Z,3.03
2022-11-03T23:50:05.933Z,2.53
2022-11-03T23:53:07.153Z,2.90
2022-11-03T23:56:27.254Z,2.22
2022-11-03T23:59:29.328Z,2.85
